Time;durP1;ratioP1;P1;durP2;ratioP2;P2;SDS_P1;SDS_P2;PMS_P1;PMS_P2;Temp;Humidity;BMP_temperature;BMP_pressure;BME280_temperature;BME280_humidity;BME280_pressure;Samples;Min_cycle;Max_cycle;Signal;HPM_P1;HPM_P2
2022/08/18 00:46:56;;;;;;;14.80;13.45;;;;;;;19.77;89.31;96236.13;1732230;81;21186;-81
2022/08/18 00:49:21;;;;;;;16.77;15.03;;;;;;;19.79;89.22;96229.56;1749120;81;21019;-81
2022/08/18 00:51:48;;;;;;;17.35;15.65;;;;;;;19.82;89.18;96219.57;1734245;81;20934;-81
2022/08/18 00:54:20;;;;;;;16.00;14.40;;;;;;;19.85;89.09;96224.34;1739650;81;21032;-80
2022/08/18 00:56:49;;;;;;;17.00;15.30;;;;;;;19.88;89.39;96227.84;1738624;80;21011;-81
2022/08/18 00:59:36;;;;;;;16.07;14.65;;;;;;;19.92;89.48;96228.95;1733542;81;20949;-81
2022/08/18 01:02:04;;;;;;;16.55;14.93;;;;;;;19.97;89.64;96230.31;1746559;80;20990;-81
2022/08/18 01:04:53;;;;;;;17.25;15.55;;;;;;;19.99;89.45;96234.83;1746060;80;20968;-81
2022/08/18 01:07:34;;;;;;;16.25;14.75;;;;;;;20.02;89.45;96238.31;1717874;81;21119;-81
2022/08/18 01:10:02;;;;;;;16.50;14.68;;;;;;;20.06;89.58;96240.73;1750017;80;20985;-81
2022/08/18 01:12:28;;;;;;;16.37;14.78;;;;;;;20.08;89.29;96241.28;1752679;80;20960;-81
2022/08/18 01:14:54;;;;;;;16.57;14.87;;;;;;;20.09;89.10;96238.92;1750570;80;21400;-80
2022/08/18 01:23:03;;;;;;;16.80;15.30;;;;;;;20.07;88.55;96239.69;1768095;80;21027;-81
2022/08/18 01:28:16;;;;;;;16.62;14.93;;;;;;;20.05;88.71;96224.64;1729432;80;20980;-81
2022/08/18 01:30:50;;;;;;;17.00;15.28;;;;;;;20.02;88.84;96219.33;1761278;80;20991;-81
2022/08/18 01:33:17;;;;;;;17.02;15.53;;;;;;;19.99;88.92;96221.12;1758125;80;21389;-81
2022/08/18 01:35:48;;;;;;;16.95;15.20;;;;;;;20.00;89.01;96228.50;1759893;80;21019;-81
2022/08/18 01:38:17;;;;;;;17.00;15.48;;;;;;;19.98;89.01;96229.28;1726768;81;21301;-81
2022/08/18 01:40:45;;;;;;;17.55;15.70;;;;;;;19.96;89.12;96222.93;1738564;80;21311;-81
2022/08/18 01:43:12;;;;;;;17.25;15.55;;;;;;;19.94;89.18;96216.31;1747184;81;21008;-81
2022/08/18 01:45:39;;;;;;;16.20;14.65;;;;;;;19.90;89.19;96209.41;1738872;80;21014;-81
2022/08/18 01:48:06;;;;;;;17.45;15.58;;;;;;;19.88;89.33;96208.86;1716972;82;20936;-80
2022/08/18 01:50:35;;;;;;;16.12;14.53;;;;;;;19.85;89.28;96205.41;1709196;82;20979;-81
2022/08/18 01:53:04;;;;;;;17.17;15.55;;;;;;;19.83;89.32;96202.19;1723264;82;21002;-81
2022/08/18 01:55:31;;;;;;;16.40;14.95;;;;;;;19.79;89.50;96203.72;1721426;82;20967;-81
2022/08/18 01:57:57;;;;;;;16.95;15.40;;;;;;;19.74;89.91;96199.19;1726610;82;20967;-81
2022/08/18 02:00:24;;;;;;;18.90;16.97;;;;;;;19.72;89.89;96196.00;1727920;82;21022;-81
2022/08/18 02:02:50;;;;;;;16.48;14.87;;;;;;;19.70;89.92;96194.66;1729549;82;20959;-81
2022/08/18 02:05:33;;;;;;;17.12;15.53;;;;;;;19.67;90.14;96193.80;1697370;84;20983;-81
2022/08/18 02:07:59;;;;;;;16.42;14.73;;;;;;;19.65;90.52;96194.05;1712529;83;21004;-81
2022/08/18 02:10:25;;;;;;;17.17;15.68;;;;;;;19.64;90.61;96197.72;1708152;83;21019;-81
2022/08/18 02:12:50;;;;;;;18.45;16.65;;;;;;;19.62;90.71;96199.81;1712216;84;20971;-81
2022/08/18 02:15:16;;;;;;;18.27;16.40;;;;;;;19.61;90.60;96200.05;1714668;83;21019;-81
2022/08/18 02:17:44;;;;;;;16.80;15.20;;;;;;;19.59;90.69;96202.94;1715295;83;20991;-81
2022/08/18 02:20:13;;;;;;;17.32;15.50;;;;;;;19.58;90.47;96203.98;1712589;83;21390;-81
2022/08/18 02:22:39;;;;;;;17.85;15.28;;;;;;;19.59;90.50;96208.20;1712817;83;21004;-81
2022/08/18 02:25:06;;;;;;;17.32;15.32;;;;;;;19.59;90.27;96206.89;1710573;84;21350;-81
2022/08/18 02:27:32;;;;;;;17.02;15.43;;;;;;;19.59;90.27;96206.89;1713210;83;20951;-81
2022/08/18 02:29:59;;;;;;;17.60;15.68;;;;;;;19.60;90.18;96214.27;1714536;84;21062;-81
2022/08/18 02:32:25;;;;;;;17.10;15.60;;;;;;;19.58;90.14;96211.88;1711818;83;20977;-81
2022/08/18 02:34:51;;;;;;;16.90;15.28;;;;;;;19.57;90.20;96211.61;1709503;83;21378;-81
2022/08/18 02:37:16;;;;;;;17.57;16.02;;;;;;;19.49;90.29;96200.91;1711341;84;20979;-81
2022/08/18 02:39:42;;;;;;;17.92;16.15;;;;;;;19.58;90.29;96218.99;1709904;83;21248;-81
2022/08/18 02:42:08;;;;;;;16.57;14.87;;;;;;;19.59;90.22;96224.02;1710442;83;21469;-81
2022/08/18 02:44:34;;;;;;;17.32;15.65;;;;;;;19.59;90.25;96222.70;1700961;84;20979;-80
2022/08/18 02:47:01;;;;;;;17.75;16.12;;;;;;;19.61;90.47;96215.87;1708060;82;21028;-81
2022/08/18 02:49:27;;;;;;;17.77;15.95;;;;;;;19.61;90.46;96211.91;1713294;83;20979;-81
2022/08/18 02:51:53;;;;;;;16.80;15.30;;;;;;;19.59;90.62;96221.91;1754281;80;20951;-81
2022/08/18 02:54:21;;;;;;;17.75;16.02;;;;;;;19.56;90.75;96220.55;1752803;80;20952;-81
2022/08/18 02:56:49;;;;;;;17.35;15.63;;;;;;;19.55;90.77;96220.28;1760286;80;21099;-81
2022/08/18 02:59:20;;;;;;;18.17;16.32;;;;;;;19.55;90.86;96220.80;1743665;81;20978;-81
2022/08/18 03:01:49;;;;;;;18.32;16.60;;;;;;;19.56;90.76;96222.39;1753145;80;21444;-81
2022/08/18 03:04:18;;;;;;;17.48;15.78;;;;;;;19.55;90.69;96217.64;1743575;81;21316;-81
2022/08/18 03:06:45;;;;;;;17.82;16.12;;;;;;;19.53;90.55;96222.33;1730168;81;21006;-80
2022/08/18 03:09:12;;;;;;;16.70;15.03;;;;;;;19.53;90.61;96220.22;1752858;80;21051;-81
2022/08/18 03:11:38;;;;;;;17.50;15.70;;;;;;;19.53;90.63;96224.17;1752979;81;21008;-81
2022/08/18 03:14:04;;;;;;;17.42;15.78;;;;;;;19.51;90.63;96220.43;1732476;80;20937;-81
2022/08/18 03:16:31;;;;;;;15.80;14.40;;;;;;;19.48;90.63;96220.40;1749492;80;21354;-81
2022/08/18 03:18:59;;;;;;;15.80;14.30;;;;;;;19.47;90.76;96224.59;1736167;80;20900;-81
2022/08/18 03:21:26;;;;;;;15.65;14.23;;;;;;;19.48;90.84;96223.55;1747741;80;20928;-81
2022/08/18 03:23:54;;;;;;;16.20;14.65;;;;;;;19.46;90.99;96228.27;1748195;80;20987;-81
2022/08/18 03:26:20;;;;;;;16.60;15.10;;;;;;;19.45;91.15;96227.47;1758894;80;21409;-81
2022/08/18 03:28:49;;;;;;;16.07;14.13;;;;;;;19.45;91.13;96226.16;1754691;80;20915;-81
2022/08/18 03:31:16;;;;;;;15.48;14.03;;;;;;;19.43;91.04;96230.08;1750410;80;20959;-81
2022/08/18 03:33:43;;;;;;;16.57;15.05;;;;;;;19.42;90.96;96229.28;1750679;81;21295;-81
2022/08/18 03:36:15;;;;;;;16.37;14.70;;;;;;;19.41;90.95;96232.16;1756776;80;20955;-81
2022/08/18 03:38:42;;;;;;;16.37;14.68;;;;;;;19.39;90.83;96228.97;1766629;80;21011;-81
2022/08/18 03:41:12;;;;;;;19.35;15.32;;;;;;;19.39;90.79;96230.29;1736068;80;21345;-80
2022/08/18 03:43:38;;;;;;;18.17;15.10;;;;;;;19.37;90.82;96233.69;1742570;81;20982;-81
2022/08/18 03:46:08;;;;;;;15.43;13.98;;;;;;;19.36;90.93;96235.52;1741177;80;21123;-81
2022/08/18 03:48:39;;;;;;;15.90;14.28;;;;;;;19.31;91.06;96230.16;1749627;81;21091;-81
2022/08/18 03:51:10;;;;;;;17.30;15.70;;;;;;;19.34;91.13;96234.94;1743273;81;20948;-80
2022/08/18 03:53:36;;;;;;;17.35;15.70;;;;;;;19.33;91.27;96236.50;1740518;81;21069;-81
2022/08/18 03:56:14;;;;;;;16.10;14.60;;;;;;;19.31;91.41;96242.53;1744735;81;21043;-81
2022/08/18 03:58:39;;;;;;;17.12;15.32;;;;;;;19.30;91.51;96245.68;1752915;81;21354;-80
2022/08/18 04:01:05;;;;;;;17.77;16.05;;;;;;;19.28;91.52;96237.75;1737908;82;21025;-81
2022/08/18 04:03:31;;;;;;;17.73;15.13;;;;;;;19.27;91.78;96238.27;1726093;81;20952;-81
2022/08/18 04:05:56;;;;;;;16.55;14.95;;;;;;;19.27;91.79;96237.47;1731519;81;20968;-81
2022/08/18 04:08:22;;;;;;;16.70;15.10;;;;;;;19.29;91.92;96241.97;1735590;81;20955;-81
2022/08/18 04:10:48;;;;;;;18.35;15.88;;;;;;;19.31;92.06;96239.89;1727586;81;21016;-80
2022/08/18 04:13:14;;;;;;;17.30;15.15;;;;;;;19.33;92.06;96241.77;1755166;81;21059;-81
2022/08/18 04:15:40;;;;;;;18.15;16.15;;;;;;;19.34;92.07;96242.05;1744375;81;25786;-80
2022/08/18 04:18:07;;;;;;;18.40;16.70;;;;;;;19.35;92.10;96243.12;1745753;81;20945;-81
2022/08/18 04:20:34;;;;;;;19.23;17.42;;;;;;;19.39;92.19;96236.88;1744028;81;20964;-81
2022/08/18 04:23:00;;;;;;;18.05;16.35;;;;;;;19.40;92.17;96236.63;1678965;84;20995;-80
2022/08/18 04:25:26;;;;;;;20.08;18.20;;;;;;;19.42;92.20;96241.14;1688667;83;21044;-81
2022/08/18 04:27:56;;;;;;;17.05;15.35;;;;;;;19.41;92.21;96235.59;1730443;82;21034;-81
2022/08/18 04:30:20;;;;;;;18.00;16.10;;;;;;;19.41;92.36;96236.91;1735344;82;21028;-80
2022/08/18 04:32:46;;;;;;;18.92;16.97;;;;;;;19.40;92.49;96237.95;1728023;81;21091;-81
2022/08/18 04:35:11;;;;;;;18.25;16.55;;;;;;;19.40;92.62;96241.10;1743205;81;21346;-81
2022/08/18 04:37:37;;;;;;;18.25;16.50;;;;;;;19.41;92.71;96245.33;1692383;83;20989;-81
2022/08/18 04:40:04;;;;;;;17.95;16.35;;;;;;;19.42;92.72;96242.97;1678550;84;20980;-80
2022/08/18 04:42:30;;;;;;;18.75;16.87;;;;;;;19.43;92.87;96242.73;1676024;85;21374;-81
2022/08/18 04:44:56;;;;;;;17.23;15.55;;;;;;;19.46;93.05;96241.45;1742030;81;21047;-81
2022/08/18 04:47:24;;;;;;;17.62;15.93;;;;;;;19.48;93.10;96242.00;1734216;80;21026;-81
2022/08/18 04:49:50;;;;;;;16.07;14.63;;;;;;;19.49;92.92;96240.44;1763831;80;21343;-81
2022/08/18 04:55:01;;;;;;;16.27;14.68;;;;;;;19.56;93.17;96248.75;1757798;80;20973;-81
2022/08/18 04:57:28;;;;;;;15.60;14.07;;;;;;;19.59;93.42;96246.42;1757490;80;21725;-81
2022/08/18 04:59:53;;;;;;;15.68;14.15;;;;;;;19.61;93.52;96246.98;1754785;80;20976;-81
2022/08/18 05:02:20;;;;;;;17.23;15.53;;;;;;;19.65;93.77;96242.80;1755052;81;20955;-80
2022/08/18 05:04:46;;;;;;;15.68;14.05;;;;;;;19.69;93.81;96246.58;1738885;81;20985;-80
2022/08/18 05:07:15;;;;;;;16.45;14.95;;;;;;;19.73;93.86;96245.05;1751345;81;20987;-81
2022/08/18 05:09:41;;;;;;;17.20;14.68;;;;;;;19.76;94.00;96242.44;1738932;81;20940;-80
2022/08/18 05:12:08;;;;;;;16.57;15.18;;;;;;;19.79;94.02;96241.95;1745002;81;21342;-81
2022/08/18 05:14:34;;;;;;;16.87;15.35;;;;;;;19.83;94.12;96238.30;1762040;80;21051;-81
2022/08/18 05:17:01;;;;;;;17.17;15.48;;;;;;;19.88;94.21;96237.87;1758786;81;21430;-81
2022/08/18 05:19:26;;;;;;;18.87;16.25;;;;;;;19.91;94.34;96241.85;1732194;81;20954;-81
2022/08/18 05:21:54;;;;;;;17.82;16.15;;;;;;;19.97;94.62;96238.23;1755558;80;20976;-81
2022/08/18 05:24:20;;;;;;;18.75;17.07;;;;;;;19.99;94.57;96248.01;1753536;81;20946;-81
2022/08/18 05:26:47;;;;;;;19.40;17.50;;;;;;;20.01;94.71;96243.28;1752403;80;20906;-80
2022/08/18 05:29:14;;;;;;;18.82;17.25;;;;;;;20.03;94.59;96245.19;1762642;80;20959;-81
2022/08/18 05:31:40;;;;;;;19.62;17.90;;;;;;;20.08;94.89;96242.08;1742792;81;20962;-81
2022/08/18 05:34:07;;;;;;;19.00;17.37;;;;;;;20.11;94.95;96236.83;1754670;80;21035;-81
2022/08/18 05:36:50;;;;;;;20.52;18.67;;;;;;;20.13;94.81;96233.42;1747654;81;21019;-81
2022/08/18 05:39:36;;;;;;;19.80;17.85;;;;;;;20.16;94.96;96229.49;1742111;80;21296;-80
2022/08/18 05:42:12;;;;;;;20.35;18.35;;;;;;;20.17;94.92;96237.16;1749125;81;21354;-81
2022/08/18 05:44:47;;;;;;;20.50;18.60;;;;;;;20.20;95.09;96233.26;1732537;80;21019;-81
2022/08/18 05:47:30;;;;;;;19.45;17.75;;;;;;;20.23;95.10;96237.52;1751462;80;21079;-81
2022/08/18 05:49:59;;;;;;;19.27;17.48;;;;;;;20.29;95.30;96235.72;1725990;80;20958;-81
2022/08/18 05:52:52;;;;;;;19.98;18.17;;;;;;;20.32;95.37;96241.30;1727568;80;20976;-80
2022/08/18 05:58:30;;;;;;;18.60;16.97;;;;;;;20.45;95.63;96251.23;1761150;80;21363;-81
2022/08/18 06:01:07;;;;;;;19.65;17.85;;;;;;;20.53;95.90;96252.14;1756084;80;20982;-81
2022/08/18 06:03:37;;;;;;;19.40;17.50;;;;;;;20.58;95.77;96255.62;1709322;80;21372;-81
2022/08/18 06:06:10;;;;;;;18.12;16.40;;;;;;;20.64;95.71;96256.46;1755515;80;20903;-81
2022/08/18 06:08:41;;;;;;;17.67;15.95;;;;;;;20.67;95.77;96255.98;1758331;80;21474;-81
2022/08/18 06:11:08;;;;;;;19.00;17.27;;;;;;;20.72;95.86;96256.03;1763602;80;20999;-81
2022/08/18 06:13:39;;;;;;;17.12;15.48;;;;;;;20.77;95.75;96261.36;1750413;80;21284;-81
2022/08/18 06:16:39;;;;;;;;;;;;;;;20.81;95.84;96259.01;1756441;80;21030;-81
2022/08/18 06:19:29;;;;;;;17.82;16.23;;;;;;;20.88;95.88;96259.63;1746894;80;20084;-81
2022/08/18 06:22:14;;;;;;;20.23;18.25;;;;;;;20.93;96.00;96259.14;1741870;80;21422;-81
2022/08/18 06:25:07;;;;;;;17.62;16.02;;;;;;;20.97;95.47;96268.15;1710770;82;20964;-81
2022/08/18 06:28:03;;;;;;;19.27;17.55;;;;;;;21.08;95.74;96263.77;1706560;82;21063;-81
2022/08/18 06:30:37;;;;;;;19.25;17.40;;;;;;;21.18;95.57;96274.44;1706962;82;21474;-80
2022/08/18 06:33:17;;;;;;;18.30;16.60;;;;;;;21.25;95.55;96275.56;1636183;85;20965;-81
2022/08/18 06:35:53;;;;;;;18.57;16.85;;;;;;;21.30;95.57;96271.64;1739812;80;20953;-81
2022/08/18 06:38:51;;;;;;;18.90;17.15;;;;;;;21.33;95.56;96271.69;1747785;80;20939;-80
2022/08/18 06:41:22;;;;;;;18.40;16.80;;;;;;;21.36;95.59;96266.69;1753968;80;20959;-81
2022/08/18 06:44:07;;;;;;;18.67;16.87;;;;;;;21.42;95.80;96268.30;1748002;80;20940;-81
2022/08/18 06:46:46;;;;;;;17.82;16.12;;;;;;;21.49;95.83;96268.91;1750621;80;21042;-80
2022/08/18 06:49:20;;;;;;;19.37;17.48;;;;;;;21.57;95.44;96272.91;1714839;80;20959;-81
2022/08/18 06:51:46;;;;;;;20.15;18.35;;;;;;;21.64;95.34;96272.19;1714593;80;21389;-80
2022/08/18 06:54:25;;;;;;;20.20;18.35;;;;;;;21.69;95.22;96265.60;1749336;80;20982;-81
2022/08/18 06:56:53;;;;;;;19.50;17.50;;;;;;;21.72;95.09;96268.26;1743438;80;21898;-81
2022/08/18 06:59:27;;;;;;;18.67;16.87;;;;;;;21.79;95.23;96271.47;1742320;81;20946;-80
2022/08/18 07:02:19;;;;;;;20.23;18.32;;;;;;;21.84;95.13;96273.64;1741431;80;20994;-81
2022/08/18 07:04:49;;;;;;;;;;;;;;;21.90;95.03;96271.80;1751879;80;20954;-81
2022/08/18 07:07:31;;;;;;;19.30;17.55;;;;;;;21.95;94.89;96270.50;1748950;80;20084;-80
2022/08/18 07:09:57;;;;;;;19.02;17.17;;;;;;;22.00;94.96;96273.20;1744104;80;20962;-80
2022/08/18 07:12:26;;;;;;;19.70;18.00;;;;;;;22.06;95.00;96274.84;1727622;80;21354;-81
2022/08/18 07:14:58;;;;;;;22.58;20.57;;;;;;;22.08;94.92;96272.73;1745429;80;20995;-81
2022/08/18 07:17:33;;;;;;;20.60;18.77;;;;;;;22.15;94.90;96277.80;1747883;80;21040;-81
2022/08/18 07:20:05;;;;;;;19.60;17.77;;;;;;;22.24;95.09;96274.13;1745650;80;21019;-80
2022/08/18 07:22:31;;;;;;;20.20;18.27;;;;;;;22.30;95.11;96277.08;1739686;80;20990;-81
2022/08/18 07:24:59;;;;;;;21.82;19.75;;;;;;;22.35;94.77;96273.92;1747970;80;21431;-81
2022/08/18 07:27:48;;;;;;;23.65;21.55;;;;;;;22.38;94.57;96268.11;1718583;80;21553;-80
2022/08/18 07:30:24;;;;;;;22.98;20.85;;;;;;;22.46;94.68;96266.83;1743837;80;20931;-82
2022/08/18 07:32:58;;;;;;;22.85;20.57;;;;;;;22.54;94.55;96260.22;1722491;80;20988;-82
2022/08/18 07:35:34;;;;;;;22.07;19.90;;;;;;;22.62;94.32;96256.55;1743654;80;20963;-82
2022/08/18 07:38:24;;;;;;;22.45;20.32;;;;;;;22.74;93.88;96253.11;1745718;80;20931;-82
2022/08/18 07:41:24;;;;;;;21.30;19.23;;;;;;;22.86;93.87;96250.27;1748133;80;21436;-82
2022/08/18 07:44:05;;;;;;;21.23;19.00;;;;;;;22.96;94.20;96246.84;1748058;80;20966;-82
2022/08/18 07:46:53;;;;;;;16.52;14.95;;;;;;;23.03;93.84;96248.70;1751557;80;21043;-82
2022/08/18 07:49:22;;;;;;;17.45;15.85;;;;;;;23.11;90.67;96246.87;1745014;80;20935;-80
2022/08/18 07:51:53;;;;;;;16.12;14.70;;;;;;;23.21;89.78;96247.38;1740960;80;21000;-81
2022/08/18 07:54:55;;;;;;;18.27;16.60;;;;;;;23.29;88.99;96251.64;1744390;80;20943;-81
2022/08/18 07:57:42;;;;;;;16.67;15.00;;;;;;;23.38;90.62;96253.74;1742718;80;20971;-80
2022/08/18 08:00:25;;;;;;;17.82;16.23;;;;;;;23.50;89.06;96255.60;1727373;80;21008;-80
2022/08/18 08:03:17;;;;;;;16.82;15.20;;;;;;;23.60;89.49;96264.38;1741054;80;20991;-80
2022/08/18 08:06:06;;;;;;;15.78;14.13;;;;;;;23.71;87.07;96267.80;1751287;80;20955;-82
2022/08/18 08:08:40;;;;;;;17.95;16.23;;;;;;;23.85;86.93;96270.17;1728876;80;20950;-82
2022/08/18 08:11:44;;;;;;;16.67;15.10;;;;;;;23.95;87.70;96272.02;1749920;80;21379;-82
2022/08/18 08:14:42;;;;;;;17.50;15.90;;;;;;;24.02;87.65;96270.40;1743461;80;21079;-82
2022/08/18 08:17:32;;;;;;;18.12;16.12;;;;;;;24.08;87.11;96276.77;1728804;81;20983;-82
2022/08/18 08:20:13;;;;;;;17.12;15.50;;;;;;;24.19;87.40;96278.84;1732726;80;20974;-81
2022/08/18 08:22:47;;;;;;;17.10;15.30;;;;;;;24.28;87.10;96288.38;1743487;80;21023;-82
2022/08/18 08:25:23;;;;;;;19.67;17.77;;;;;;;24.37;87.15;96293.41;1740861;80;20983;-82
2022/08/18 08:28:24;;;;;;;20.82;18.67;;;;;;;24.48;86.25;96297.63;1753381;80;20980;-82
2022/08/18 08:31:07;;;;;;;18.07;16.37;;;;;;;24.62;85.97;96293.33;1740891;81;21449;-82
2022/08/18 08:33:56;;;;;;;19.52;17.62;;;;;;;24.74;83.76;96300.45;1756708;80;21039;-81
2022/08/18 08:36:30;;;;;;;15.65;14.23;;;;;;;24.87;84.20;96297.70;1751543;80;21054;-82
2022/08/18 08:39:00;;;;;;;19.35;17.35;;;;;;;25.00;80.89;96300.31;1755283;80;20942;-82
2022/08/18 08:41:37;;;;;;;18.32;16.75;;;;;;;25.10;82.27;96294.95;1764441;81;21007;-82
2022/08/18 08:44:43;;;;;;;18.10;16.20;;;;;;;25.23;82.52;96298.33;1741965;80;20914;-82
2022/08/18 08:47:45;;;;;;;17.30;15.80;;;;;;;25.31;83.13;96292.94;1745542;80;20996;-82
2022/08/18 08:50:16;;;;;;;18.07;16.45;;;;;;;25.34;82.70;96293.70;1720198;80;21368;-82
2022/08/18 08:53:06;;;;;;;18.23;16.42;;;;;;;25.38;81.81;96297.39;1735887;80;20972;-82
2022/08/18 08:55:39;;;;;;;17.00;15.28;;;;;;;25.43;80.87;96290.73;1746515;80;21402;-81
2022/08/18 08:58:13;;;;;;;16.95;15.45;;;;;;;25.50;81.92;96295.17;1731855;80;20969;-81
2022/08/18 09:00:39;;;;;;;16.93;15.43;;;;;;;25.56;81.19;96292.75;1717723;82;20970;-81
2022/08/18 09:03:30;;;;;;;17.15;15.55;;;;;;;25.64;80.41;96290.80;1719987;82;20968;-81
2022/08/18 09:06:23;;;;;;;17.73;16.02;;;;;;;25.71;79.87;96293.19;1721651;82;20982;-81
2022/08/18 09:09:25;;;;;;;17.20;15.60;;;;;;;25.76;79.60;96292.34;1691910;83;21147;-81
2022/08/18 09:12:08;;;;;;;17.10;15.53;;;;;;;25.79;80.01;96293.90;1611864;86;21112;-81
2022/08/18 09:15:13;;;;;;;16.37;14.87;;;;;;;25.88;80.06;96292.77;1664023;84;21031;-81
2022/08/18 09:18:22;;;;;;;16.02;14.53;;;;;;;25.96;79.43;96288.14;1652018;85;21020;-81
2022/08/18 09:21:05;;;;;;;15.98;14.40;;;;;;;26.05;78.66;96290.47;1705131;82;21358;-81
2022/08/18 09:23:35;;;;;;;16.55;14.95;;;;;;;26.13;77.84;96290.38;1697544;82;20987;-81
2022/08/18 09:26:35;;;;;;;15.60;14.30;;;;;;;26.19;77.58;96290.56;1721716;81;21040;-81
2022/08/18 09:29:22;;;;;;;16.27;13.70;;;;;;;26.24;78.23;96294.52;1739655;80;20976;-81
2022/08/18 09:31:50;;;;;;;15.18;13.78;;;;;;;26.28;74.86;96290.20;1740688;80;21023;-81
2022/08/18 09:34:43;;;;;;;15.80;14.15;;;;;;;26.33;75.92;96292.27;1698532;82;20999;-81
2022/08/18 09:37:17;;;;;;;14.93;13.65;;;;;;;26.40;76.38;96285.84;1751992;80;21026;-81
2022/08/18 09:43:16;;;;;;;14.15;13.05;;;;;;;26.48;76.14;96284.66;1743034;80;21063;-83
2022/08/18 09:45:54;;;;;;;15.23;13.80;;;;;;;26.50;74.20;96295.03;1743221;79;21040;-81
2022/08/18 09:48:30;;;;;;;13.88;12.68;;;;;;;26.53;73.89;96294.48;1732724;80;21011;-81
2022/08/18 09:51:17;;;;;;;15.18;13.70;;;;;;;26.56;71.33;96297.91;1703774;82;20953;-81
2022/08/18 09:53:52;;;;;;;14.75;13.45;;;;;;;26.60;74.02;96297.59;1706049;82;21415;-81
2022/08/18 09:56:52;;;;;;;14.98;13.53;;;;;;;26.64;72.04;96298.59;1702362;82;21067;-80
2022/08/18 09:59:48;;;;;;;14.80;13.53;;;;;;;26.70;71.23;96296.67;1689487;83;21007;-81
2022/08/18 10:02:31;;;;;;;15.60;14.10;;;;;;;26.80;72.56;96288.52;1716833;82;20988;-81
2022/08/18 10:05:21;;;;;;;14.35;13.15;;;;;;;26.87;73.86;96284.44;1692978;82;21074;-81
2022/08/18 10:07:52;;;;;;;14.03;12.78;;;;;;;26.89;73.77;96278.28;1697792;82;21011;-81
2022/08/18 10:10:51;;;;;;;14.58;13.05;;;;;;;26.90;72.83;96273.73;1716617;82;21024;-81
2022/08/18 10:13:42;;;;;;;13.98;12.85;;;;;;;26.95;73.45;96275.53;1694211;83;21025;-81
2022/08/18 10:16:24;;;;;;;13.72;12.45;;;;;;;27.00;72.97;96278.94;1693801;83;21012;-84
2022/08/18 10:19:20;;;;;;;13.85;12.55;;;;;;;27.04;72.73;96269.84;1716912;82;21020;-81
2022/08/18 10:22:00;;;;;;;14.25;12.98;;;;;;;27.07;70.75;96266.59;1704918;83;21007;-81
2022/08/18 10:24:52;;;;;;;14.15;12.82;;;;;;;27.15;72.67;96258.71;1683860;83;21466;-81
2022/08/18 10:27:44;;;;;;;13.70;12.50;;;;;;;27.24;72.55;96257.53;1716856;82;20917;-81
2022/08/18 10:30:36;;;;;;;14.03;12.75;;;;;;;27.26;71.40;96251.36;1722836;82;21039;-81
2022/08/18 10:33:07;;;;;;;14.80;13.60;;;;;;;27.27;70.34;96260.15;1671005;83;21008;-81
2022/08/18 10:35:39;;;;;;;15.35;13.95;;;;;;;27.34;70.82;96252.05;1697170;83;21043;-83
2022/08/18 10:38:18;;;;;;;13.32;12.10;;;;;;;27.41;72.60;96247.11;1716529;83;20992;-83
2022/08/18 10:41:02;;;;;;;14.63;13.13;;;;;;;27.46;70.32;96250.23;1700002;82;21434;-83
2022/08/18 10:43:33;;;;;;;13.60;12.47;;;;;;;27.49;70.88;96249.09;1691494;83;21040;-82
2022/08/18 10:45:59;;;;;;;14.80;13.28;;;;;;;27.58;70.55;96245.77;1694261;82;21383;-81
2022/08/18 10:48:29;;;;;;;15.45;13.95;;;;;;;27.59;67.56;96240.14;1722495;82;21151;-81
2022/08/18 10:51:22;;;;;;;13.75;12.60;;;;;;;27.64;68.69;96241.41;1728332;81;21022;-81
2022/08/18 10:54:20;;;;;;;13.28;12.18;;;;;;;27.68;69.94;96235.75;1726215;80;21397;-81
2022/08/18 10:56:56;;;;;;;12.88;11.70;;;;;;;27.68;65.61;96237.63;1725807;80;21327;-81
2022/08/18 10:59:42;;;;;;;14.40;12.90;;;;;;;27.73;67.07;96242.32;1729527;80;21406;-81
2022/08/18 11:02:47;;;;;;;13.90;12.47;;;;;;;27.78;68.38;96238.22;1742004;80;21347;-81
2022/08/18 11:05:15;;;;;;;13.30;12.10;;;;;;;27.75;68.72;96236.69;1726292;82;20963;-81
2022/08/18 11:07:45;;;;;;;12.60;11.45;;;;;;;27.71;67.28;96233.82;1705343;83;20936;-81
2022/08/18 11:10:20;;;;;;;13.55;12.35;;;;;;;27.74;67.12;96233.77;1716913;82;20998;-81
2022/08/18 11:13:30;;;;;;;12.85;11.70;;;;;;;27.74;68.18;96233.77;1725977;80;21420;-81
2022/08/18 11:16:29;;;;;;;14.20;12.90;;;;;;;27.73;67.49;96237.53;1725735;80;20944;-81
2022/08/18 11:19:03;;;;;;;13.65;12.25;;;;;;;27.78;65.82;96227.54;1738608;80;21014;-81
2022/08/18 11:21:38;;;;;;;12.53;11.33;;;;;;;27.85;67.54;96235.72;1691505;83;21066;-81
2022/08/18 11:24:20;;;;;;;14.47;13.03;;;;;;;27.91;65.98;96224.64;1695255;84;20981;-81
2022/08/18 11:26:51;;;;;;;12.90;11.65;;;;;;;28.00;68.22;96224.21;1690747;83;20992;-82
2022/08/18 11:29:38;;;;;;;14.07;12.95;;;;;;;28.06;66.32;96221.68;1755701;80;20964;-81
2022/08/18 11:32:10;;;;;;;13.22;12.13;;;;;;;28.11;66.88;96214.89;1711716;82;21030;-81
2022/08/18 11:34:43;;;;;;;12.93;11.73;;;;;;;28.11;67.61;96212.77;1755236;80;20978;-81
2022/08/18 11:37:35;;;;;;;12.88;11.78;;;;;;;28.10;64.60;96210.64;1750982;80;21035;-81
2022/08/18 11:40:04;;;;;;;12.43;11.33;;;;;;;28.14;65.79;96211.38;1718931;83;20967;-83
2022/08/18 11:42:36;;;;;;;12.53;11.38;;;;;;;28.19;65.42;96201.95;1743093;80;20967;-83
2022/08/18 11:45:16;;;;;;;11.97;10.90;;;;;;;28.25;66.31;96203.41;1736481;80;21366;-83
2022/08/18 11:48:23;;;;;;;11.68;10.65;;;;;;;28.30;64.42;96195.31;1733465;80;20995;-83
2022/08/18 11:51:00;;;;;;;12.90;11.68;;;;;;;28.32;64.29;96191.28;1708073;81;21071;-83
2022/08/18 11:53:50;;;;;;;13.30;11.97;;;;;;;28.38;66.22;96193.29;1730250;81;21004;-81
2022/08/18 11:56:23;;;;;;;11.75;10.55;;;;;;;28.36;63.91;96190.92;1730181;81;21003;-81
2022/08/18 11:59:02;;;;;;;12.00;10.98;;;;;;;28.32;62.78;96199.30;1730136;81;21452;-81
2022/08/18 12:01:47;;;;;;;11.70;10.50;;;;;;;28.33;62.83;96192.06;1730455;81;20968;-81
2022/08/18 12:04:28;;;;;;;12.05;10.95;;;;;;;28.38;63.77;96191.95;1714430;81;20991;-81
2022/08/18 12:07:13;;;;;;;11.55;10.38;;;;;;;28.43;64.37;96186.48;1701809;81;21050;-81
2022/08/18 12:10:06;;;;;;;12.20;11.10;;;;;;;28.51;63.02;96179.11;1721650;81;20994;-81
2022/08/18 12:12:32;;;;;;;11.45;10.45;;;;;;;28.55;63.35;96178.75;1730684;82;21054;-81
2022/08/18 12:15:06;;;;;;;12.60;11.53;;;;;;;28.66;63.53;96179.32;1711045;81;21002;-82
2022/08/18 12:17:32;;;;;;;11.75;10.58;;;;;;;28.73;64.53;96179.69;1699348;82;21058;-82
2022/08/18 12:19:58;;;;;;;11.95;10.80;;;;;;;28.77;63.20;96175.85;1704918;81;22009;-85
2022/08/18 12:22:27;;;;;;;12.20;10.90;;;;;;;28.82;63.55;96175.75;1701449;81;21105;-83
2022/08/18 12:24:53;;;;;;;12.03;10.85;;;;;;;28.83;63.85;96177.33;1703950;81;20990;-83
2022/08/18 12:27:22;;;;;;;11.60;10.58;;;;;;;28.81;62.58;96170.95;1701646;81;21353;-80
2022/08/18 12:29:50;;;;;;;11.57;10.55;;;;;;;28.87;63.49;96169.77;1728840;81;21334;-81
2022/08/18 12:32:16;;;;;;;11.60;10.60;;;;;;;28.87;60.99;96165.75;1718382;82;21409;-80
2022/08/18 12:34:42;;;;;;;11.75;10.58;;;;;;;28.88;62.26;96173.22;1725976;81;21013;-81
2022/08/18 12:37:09;;;;;;;12.10;10.90;;;;;;;28.94;63.20;96163.97;1701381;81;21001;-80
2022/08/18 12:39:35;;;;;;;11.35;10.30;;;;;;;29.03;63.19;96160.03;1703251;81;21078;-81
2022/08/18 12:42:01;;;;;;;11.75;10.58;;;;;;;29.04;62.06;96154.38;1730480;81;21465;-81
2022/08/18 12:44:27;;;;;;;11.60;10.50;;;;;;;29.10;63.28;96151.02;1718821;81;20971;-81
2022/08/18 12:46:54;;;;;;;13.00;10.05;;;;;;;29.08;62.11;96149.99;1722255;81;21086;-81
2022/08/18 12:49:23;;;;;;;10.88;9.88;;;;;;;29.08;62.26;96147.86;1740503;80;20983;-81
2022/08/18 12:51:50;;;;;;;11.75;10.70;;;;;;;29.08;61.16;96147.86;1731701;81;20984;-81
2022/08/18 12:54:17;;;;;;;11.50;10.43;;;;;;;29.13;61.61;96154.45;1740860;80;20955;-81
2022/08/18 12:56:43;;;;;;;12.00;11.00;;;;;;;29.15;62.39;96159.73;1741297;80;21042;-81